sensor_id;sensor_type;location;lat;lon;timestamp;P1;durP1;ratioP1;P2;durP2;ratioP2
16766;SDS011;8501;49.926;8.404;2023-06-14T00:01:01;10.02;;;7.72;;
16766;SDS011;8501;49.926;8.404;2023-06-14T00:03:31;8.45;;;7.35;;
16766;SDS011;8501;49.926;8.404;2023-06-14T00:05:56;10.00;;;7.68;;
16766;SDS011;8501;49.926;8.404;2023-06-14T00:08:22;11.55;;;8.40;;
16766;SDS011;8501;49.926;8.404;2023-06-14T00:10:49;9.00;;;7.55;;
16766;SDS011;8501;49.926;8.404;2023-06-14T00:13:15;8.45;;;7.63;;
16766;SDS011;8501;49.926;8.404;2023-06-14T00:15:41;9.15;;;7.68;;
16766;SDS011;8501;49.926;8.404;2023-06-14T00:18:07;10.27;;;7.70;;
16766;SDS011;8501;49.926;8.404;2023-06-14T00:20:34;8.35;;;7.50;;
16766;SDS011;8501;49.926;8.404;2023-06-14T00:23:00;10.40;;;7.63;;
16766;SDS011;8501;49.926;8.404;2023-06-14T00:25:26;9.00;;;8.10;;
16766;SDS011;8501;49.926;8.404;2023-06-14T00:27:52;8.93;;;7.70;;
16766;SDS011;8501;49.926;8.404;2023-06-14T00:30:17;9.50;;;7.88;;
16766;SDS011;8501;49.926;8.404;2023-06-14T00:32:43;9.20;;;8.30;;
16766;SDS011;8501;49.926;8.404;2023-06-14T00:35:10;8.70;;;7.75;;
16766;SDS011;8501;49.926;8.404;2023-06-14T00:37:36;8.82;;;7.90;;
16766;SDS011;8501;49.926;8.404;2023-06-14T00:40:02;8.90;;;7.93;;
16766;SDS011;8501;49.926;8.404;2023-06-14T00:42:29;8.85;;;7.63;;
16766;SDS011;8501;49.926;8.404;2023-06-14T00:44:55;9.55;;;7.80;;
16766;SDS011;8501;49.926;8.404;2023-06-14T00:47:20;10.32;;;8.05;;
16766;SDS011;8501;49.926;8.404;2023-06-14T00:49:47;10.32;;;7.30;;
16766;SDS011;8501;49.926;8.404;2023-06-14T00:52:15;10.00;;;7.63;;
16766;SDS011;8501;49.926;8.404;2023-06-14T00:54:41;9.00;;;7.55;;
16766;SDS011;8501;49.926;8.404;2023-06-14T00:57:07;9.15;;;7.60;;
16766;SDS011;8501;49.926;8.404;2023-06-14T00:59:34;8.77;;;7.18;;
16766;SDS011;8501;49.926;8.404;2023-06-14T01:02:06;9.57;;;7.70;;
16766;SDS011;8501;49.926;8.404;2023-06-14T01:04:32;8.90;;;7.18;;
16766;SDS011;8501;49.926;8.404;2023-06-14T01:09:50;8.40;;;7.50;;
16766;SDS011;8501;49.926;8.404;2023-06-14T01:12:57;8.35;;;7.45;;
16766;SDS011;8501;49.926;8.404;2023-06-14T01:15:44;10.88;;;7.60;;
16766;SDS011;8501;49.926;8.404;2023-06-14T01:18:11;8.95;;;7.43;;
16766;SDS011;8501;49.926;8.404;2023-06-14T01:20:42;8.07;;;7.15;;
16766;SDS011;8501;49.926;8.404;2023-06-14T01:23:10;8.15;;;7.28;;
16766;SDS011;8501;49.926;8.404;2023-06-14T01:25:39;8.00;;;7.20;;
16766;SDS011;8501;49.926;8.404;2023-06-14T01:28:06;8.80;;;7.78;;
16766;SDS011;8501;49.926;8.404;2023-06-14T01:30:35;10.90;;;7.20;;
16766;SDS011;8501;49.926;8.404;2023-06-14T01:33:02;8.50;;;7.40;;
16766;SDS011;8501;49.926;8.404;2023-06-14T01:35:30;9.18;;;7.35;;
16766;SDS011;8501;49.926;8.404;2023-06-14T01:37:55;8.98;;;7.45;;
16766;SDS011;8501;49.926;8.404;2023-06-14T01:40:22;8.82;;;7.10;;
16766;SDS011;8501;49.926;8.404;2023-06-14T01:42:49;9.27;;;7.10;;
16766;SDS011;8501;49.926;8.404;2023-06-14T01:45:15;9.23;;;7.40;;
16766;SDS011;8501;49.926;8.404;2023-06-14T01:47:43;12.35;;;7.30;;
16766;SDS011;8501;49.926;8.404;2023-06-14T01:50:09;10.05;;;7.18;;
16766;SDS011;8501;49.926;8.404;2023-06-14T01:52:36;11.45;;;7.93;;
16766;SDS011;8501;49.926;8.404;2023-06-14T01:55:03;9.35;;;7.13;;
16766;SDS011;8501;49.926;8.404;2023-06-14T01:57:30;8.00;;;7.20;;
16766;SDS011;8501;49.926;8.404;2023-06-14T01:59:55;9.80;;;6.97;;
16766;SDS011;8501;49.926;8.404;2023-06-14T02:02:21;8.80;;;6.97;;
16766;SDS011;8501;49.926;8.404;2023-06-14T02:04:46;8.02;;;7.20;;
16766;SDS011;8501;49.926;8.404;2023-06-14T02:07:12;8.88;;;7.68;;
16766;SDS011;8501;49.926;8.404;2023-06-14T02:09:40;9.60;;;6.90;;
16766;SDS011;8501;49.926;8.404;2023-06-14T02:12:06;7.78;;;6.88;;
16766;SDS011;8501;49.926;8.404;2023-06-14T02:14:32;8.13;;;7.00;;
16766;SDS011;8501;49.926;8.404;2023-06-14T02:16:58;8.93;;;7.40;;
16766;SDS011;8501;49.926;8.404;2023-06-14T02:19:25;10.18;;;7.00;;
16766;SDS011;8501;49.926;8.404;2023-06-14T02:21:51;9.02;;;6.93;;
16766;SDS011;8501;49.926;8.404;2023-06-14T02:24:16;8.65;;;6.82;;
16766;SDS011;8501;49.926;8.404;2023-06-14T02:26:42;11.07;;;7.30;;
16766;SDS011;8501;49.926;8.404;2023-06-14T02:29:08;11.13;;;6.63;;
16766;SDS011;8501;49.926;8.404;2023-06-14T02:31:37;9.15;;;7.10;;
16766;SDS011;8501;49.926;8.404;2023-06-14T02:34:03;9.65;;;7.20;;
16766;SDS011;8501;49.926;8.404;2023-06-14T02:36:29;8.27;;;6.22;;
16766;SDS011;8501;49.926;8.404;2023-06-14T02:38:55;8.02;;;6.68;;
16766;SDS011;8501;49.926;8.404;2023-06-14T02:41:22;8.13;;;6.60;;
16766;SDS011;8501;49.926;8.404;2023-06-14T02:43:48;8.48;;;6.93;;
16766;SDS011;8501;49.926;8.404;2023-06-14T02:46:14;8.25;;;6.78;;
16766;SDS011;8501;49.926;8.404;2023-06-14T02:48:40;7.30;;;6.55;;
16766;SDS011;8501;49.926;8.404;2023-06-14T02:51:05;9.85;;;7.10;;
16766;SDS011;8501;49.926;8.404;2023-06-14T02:53:31;11.02;;;6.60;;
16766;SDS011;8501;49.926;8.404;2023-06-14T02:55:57;10.57;;;7.20;;
16766;SDS011;8501;49.926;8.404;2023-06-14T02:58:23;9.43;;;6.57;;
16766;SDS011;8501;49.926;8.404;2023-06-14T03:00:49;7.88;;;6.53;;
16766;SDS011;8501;49.926;8.404;2023-06-14T03:03:17;8.05;;;6.70;;
16766;SDS011;8501;49.926;8.404;2023-06-14T03:05:43;9.77;;;6.70;;
16766;SDS011;8501;49.926;8.404;2023-06-14T03:08:14;8.98;;;6.47;;
16766;SDS011;8501;49.926;8.404;2023-06-14T03:10:50;7.50;;;6.20;;
16766;SDS011;8501;49.926;8.404;2023-06-14T03:13:16;8.20;;;6.57;;
16766;SDS011;8501;49.926;8.404;2023-06-14T03:15:42;9.20;;;6.47;;
16766;SDS011;8501;49.926;8.404;2023-06-14T03:18:08;8.85;;;6.47;;
16766;SDS011;8501;49.926;8.404;2023-06-14T03:20:34;8.15;;;6.05;;
16766;SDS011;8501;49.926;8.404;2023-06-14T03:23:00;9.73;;;7.82;;
16766;SDS011;8501;49.926;8.404;2023-06-14T03:25:27;7.00;;;6.03;;
16766;SDS011;8501;49.926;8.404;2023-06-14T03:27:54;9.20;;;6.30;;
16766;SDS011;8501;49.926;8.404;2023-06-14T03:30:20;8.65;;;6.25;;
16766;SDS011;8501;49.926;8.404;2023-06-14T03:32:46;7.88;;;6.10;;
16766;SDS011;8501;49.926;8.404;2023-06-14T03:35:11;7.88;;;6.10;;
16766;SDS011;8501;49.926;8.404;2023-06-14T03:37:42;9.52;;;5.97;;
16766;SDS011;8501;49.926;8.404;2023-06-14T03:40:08;7.57;;;6.20;;
16766;SDS011;8501;49.926;8.404;2023-06-14T03:42:34;8.70;;;6.60;;
16766;SDS011;8501;49.926;8.404;2023-06-14T03:44:59;8.18;;;5.90;;
16766;SDS011;8501;49.926;8.404;2023-06-14T03:47:25;8.85;;;6.20;;
16766;SDS011;8501;49.926;8.404;2023-06-14T03:49:52;9.60;;;5.57;;
16766;SDS011;8501;49.926;8.404;2023-06-14T03:52:17;8.15;;;6.38;;
16766;SDS011;8501;49.926;8.404;2023-06-14T03:54:43;8.35;;;6.45;;
16766;SDS011;8501;49.926;8.404;2023-06-14T03:57:09;8.57;;;6.40;;
16766;SDS011;8501;49.926;8.404;2023-06-14T03:59:35;6.90;;;6.20;;
16766;SDS011;8501;49.926;8.404;2023-06-14T04:02:01;8.45;;;6.00;;
16766;SDS011;8501;49.926;8.404;2023-06-14T04:04:27;10.25;;;6.43;;
16766;SDS011;8501;49.926;8.404;2023-06-14T04:06:54;8.32;;;6.38;;
16766;SDS011;8501;49.926;8.404;2023-06-14T04:09:21;8.75;;;6.07;;
16766;SDS011;8501;49.926;8.404;2023-06-14T04:11:49;7.63;;;6.07;;
16766;SDS011;8501;49.926;8.404;2023-06-14T04:14:21;9.57;;;6.35;;
16766;SDS011;8501;49.926;8.404;2023-06-14T04:16:47;11.48;;;6.20;;
16766;SDS011;8501;49.926;8.404;2023-06-14T04:19:14;7.13;;;5.72;;
16766;SDS011;8501;49.926;8.404;2023-06-14T04:21:40;7.28;;;5.88;;
16766;SDS011;8501;49.926;8.404;2023-06-14T04:24:05;10.35;;;6.22;;
16766;SDS011;8501;49.926;8.404;2023-06-14T04:26:31;8.40;;;6.18;;
16766;SDS011;8501;49.926;8.404;2023-06-14T04:29:02;7.68;;;5.90;;
16766;SDS011;8501;49.926;8.404;2023-06-14T04:31:31;8.00;;;5.90;;
16766;SDS011;8501;49.926;8.404;2023-06-14T04:34:02;9.48;;;5.97;;
16766;SDS011;8501;49.926;8.404;2023-06-14T04:36:30;9.43;;;6.57;;
16766;SDS011;8501;49.926;8.404;2023-06-14T04:38:59;11.13;;;6.38;;
16766;SDS011;8501;49.926;8.404;2023-06-14T04:41:29;8.02;;;6.07;;
16766;SDS011;8501;49.926;8.404;2023-06-14T04:43:55;10.88;;;6.05;;
16766;SDS011;8501;49.926;8.404;2023-06-14T04:46:26;10.60;;;6.47;;
16766;SDS011;8501;49.926;8.404;2023-06-14T04:48:53;10.90;;;6.15;;
16766;SDS011;8501;49.926;8.404;2023-06-14T04:51:19;8.80;;;6.38;;
16766;SDS011;8501;49.926;8.404;2023-06-14T04:53:47;8.35;;;6.60;;
16766;SDS011;8501;49.926;8.404;2023-06-14T04:56:14;9.93;;;6.40;;
16766;SDS011;8501;49.926;8.404;2023-06-14T04:58:40;8.02;;;6.38;;
16766;SDS011;8501;49.926;8.404;2023-06-14T05:01:05;9.13;;;6.07;;
16766;SDS011;8501;49.926;8.404;2023-06-14T05:03:34;6.82;;;5.97;;
16766;SDS011;8501;49.926;8.404;2023-06-14T05:05:59;9.77;;;5.82;;
16766;SDS011;8501;49.926;8.404;2023-06-14T05:08:25;7.70;;;6.28;;
16766;SDS011;8501;49.926;8.404;2023-06-14T05:10:51;7.68;;;6.20;;
16766;SDS011;8501;49.926;8.404;2023-06-14T05:13:17;8.07;;;6.80;;
16766;SDS011;8501;49.926;8.404;2023-06-14T05:15:43;11.95;;;6.53;;
16766;SDS011;8501;49.926;8.404;2023-06-14T05:18:09;8.88;;;6.20;;
16766;SDS011;8501;49.926;8.404;2023-06-14T05:20:35;8.00;;;6.07;;
16766;SDS011;8501;49.926;8.404;2023-06-14T05:23:02;9.70;;;6.72;;
16766;SDS011;8501;49.926;8.404;2023-06-14T05:25:28;9.55;;;6.15;;
16766;SDS011;8501;49.926;8.404;2023-06-14T05:27:53;8.95;;;6.10;;
16766;SDS011;8501;49.926;8.404;2023-06-14T05:30:19;10.13;;;6.28;;
16766;SDS011;8501;49.926;8.404;2023-06-14T05:32:45;7.25;;;6.18;;
16766;SDS011;8501;49.926;8.404;2023-06-14T05:35:11;9.90;;;5.95;;
16766;SDS011;8501;49.926;8.404;2023-06-14T05:37:36;10.95;;;6.35;;
16766;SDS011;8501;49.926;8.404;2023-06-14T05:40:02;9.70;;;6.03;;
16766;SDS011;8501;49.926;8.404;2023-06-14T05:42:33;8.32;;;6.30;;
16766;SDS011;8501;49.926;8.404;2023-06-14T05:44:59;12.90;;;5.90;;
16766;SDS011;8501;49.926;8.404;2023-06-14T05:47:25;10.68;;;6.70;;
16766;SDS011;8501;49.926;8.404;2023-06-14T05:49:52;9.68;;;6.00;;
16766;SDS011;8501;49.926;8.404;2023-06-14T05:52:18;7.65;;;5.55;;
16766;SDS011;8501;49.926;8.404;2023-06-14T05:54:43;7.10;;;5.50;;
16766;SDS011;8501;49.926;8.404;2023-06-14T05:57:10;7.15;;;6.28;;
16766;SDS011;8501;49.926;8.404;2023-06-14T05:59:35;11.95;;;5.70;;
16766;SDS011;8501;49.926;8.404;2023-06-14T06:02:01;8.10;;;5.20;;
16766;SDS011;8501;49.926;8.404;2023-06-14T06:04:27;7.70;;;5.30;;
16766;SDS011;8501;49.926;8.404;2023-06-14T06:06:52;7.75;;;5.97;;
16766;SDS011;8501;49.926;8.404;2023-06-14T06:09:18;9.80;;;5.60;;
16766;SDS011;8501;49.926;8.404;2023-06-14T06:11:44;7.60;;;5.70;;
16766;SDS011;8501;49.926;8.404;2023-06-14T06:14:09;8.32;;;5.32;;
16766;SDS011;8501;49.926;8.404;2023-06-14T06:16:35;8.95;;;5.68;;
16766;SDS011;8501;49.926;8.404;2023-06-14T06:19:00;8.68;;;5.53;;
16766;SDS011;8501;49.926;8.404;2023-06-14T06:21:26;12.07;;;5.65;;
16766;SDS011;8501;49.926;8.404;2023-06-14T06:23:51;13.45;;;5.60;;
16766;SDS011;8501;49.926;8.404;2023-06-14T06:26:17;6.70;;;5.80;;
16766;SDS011;8501;49.926;8.404;2023-06-14T06:28:42;11.10;;;5.57;;
16766;SDS011;8501;49.926;8.404;2023-06-14T06:31:08;10.43;;;5.90;;
16766;SDS011;8501;49.926;8.404;2023-06-14T06:33:33;7.18;;;5.80;;
16766;SDS011;8501;49.926;8.404;2023-06-14T06:36:00;9.35;;;5.45;;
16766;SDS011;8501;49.926;8.404;2023-06-14T06:38:25;9.93;;;6.15;;
16766;SDS011;8501;49.926;8.404;2023-06-14T06:40:51;6.78;;;5.55;;
16766;SDS011;8501;49.926;8.404;2023-06-14T06:43:18;7.15;;;5.35;;
16766;SDS011;8501;49.926;8.404;2023-06-14T06:45:44;6.72;;;5.50;;
16766;SDS011;8501;49.926;8.404;2023-06-14T06:48:10;10.05;;;5.88;;
16766;SDS011;8501;49.926;8.404;2023-06-14T06:50:35;8.15;;;5.80;;
16766;SDS011;8501;49.926;8.404;2023-06-14T06:53:01;6.53;;;5.78;;
16766;SDS011;8501;49.926;8.404;2023-06-14T06:55:27;8.05;;;5.40;;
16766;SDS011;8501;49.926;8.404;2023-06-14T06:57:52;12.07;;;5.50;;
16766;SDS011;8501;49.926;8.404;2023-06-14T07:00:18;7.35;;;5.80;;
16766;SDS011;8501;49.926;8.404;2023-06-14T07:02:44;8.10;;;5.68;;
16766;SDS011;8501;49.926;8.404;2023-06-14T07:05:10;9.70;;;5.40;;
16766;SDS011;8501;49.926;8.404;2023-06-14T07:07:36;9.40;;;5.90;;
16766;SDS011;8501;49.926;8.404;2023-06-14T07:10:02;11.32;;;5.68;;
16766;SDS011;8501;49.926;8.404;2023-06-14T07:12:29;7.25;;;5.50;;
16766;SDS011;8501;49.926;8.404;2023-06-14T07:15:01;9.80;;;5.72;;
16766;SDS011;8501;49.926;8.404;2023-06-14T07:17:26;8.50;;;5.50;;
16766;SDS011;8501;49.926;8.404;2023-06-14T07:19:52;6.32;;;5.60;;
16766;SDS011;8501;49.926;8.404;2023-06-14T07:22:18;6.85;;;5.40;;
16766;SDS011;8501;49.926;8.404;2023-06-14T07:24:44;11.27;;;5.72;;
16766;SDS011;8501;49.926;8.404;2023-06-14T07:27:09;6.28;;;5.30;;
16766;SDS011;8501;49.926;8.404;2023-06-14T07:29:35;8.32;;;5.32;;
16766;SDS011;8501;49.926;8.404;2023-06-14T07:32:01;7.05;;;5.32;;
16766;SDS011;8501;49.926;8.404;2023-06-14T07:34:26;6.43;;;5.13;;
16766;SDS011;8501;49.926;8.404;2023-06-14T07:36:52;9.70;;;5.30;;
16766;SDS011;8501;49.926;8.404;2023-06-14T07:39:19;9.15;;;5.20;;
16766;SDS011;8501;49.926;8.404;2023-06-14T07:41:44;10.18;;;5.25;;
16766;SDS011;8501;49.926;8.404;2023-06-14T07:44:10;7.57;;;5.13;;
16766;SDS011;8501;49.926;8.404;2023-06-14T07:46:37;7.63;;;4.93;;
16766;SDS011;8501;49.926;8.404;2023-06-14T07:49:03;5.28;;;4.78;;
16766;SDS011;8501;49.926;8.404;2023-06-14T07:51:28;8.07;;;4.75;;
16766;SDS011;8501;49.926;8.404;2023-06-14T07:53:54;8.73;;;4.85;;
16766;SDS011;8501;49.926;8.404;2023-06-14T07:56:19;7.55;;;4.80;;
16766;SDS011;8501;49.926;8.404;2023-06-14T07:58:45;7.25;;;4.97;;
16766;SDS011;8501;49.926;8.404;2023-06-14T08:01:11;5.47;;;4.28;;
16766;SDS011;8501;49.926;8.404;2023-06-14T08:03:37;6.00;;;4.30;;
16766;SDS011;8501;49.926;8.404;2023-06-14T08:06:02;5.30;;;4.25;;
16766;SDS011;8501;49.926;8.404;2023-06-14T08:08:29;4.82;;;4.15;;
16766;SDS011;8501;49.926;8.404;2023-06-14T08:10:55;6.75;;;4.20;;
16766;SDS011;8501;49.926;8.404;2023-06-14T08:13:20;10.30;;;4.80;;
16766;SDS011;8501;49.926;8.404;2023-06-14T08:15:46;8.80;;;4.38;;
16766;SDS011;8501;49.926;8.404;2023-06-14T08:18:12;3.83;;;3.53;;
16766;SDS011;8501;49.926;8.404;2023-06-14T08:20:37;6.20;;;4.03;;
16766;SDS011;8501;49.926;8.404;2023-06-14T08:23:03;5.10;;;4.10;;
16766;SDS011;8501;49.926;8.404;2023-06-14T08:25:29;5.35;;;4.15;;
16766;SDS011;8501;49.926;8.404;2023-06-14T08:27:55;7.10;;;3.75;;
16766;SDS011;8501;49.926;8.404;2023-06-14T08:30:21;4.70;;;4.07;;
16766;SDS011;8501;49.926;8.404;2023-06-14T08:32:47;4.68;;;3.90;;
16766;SDS011;8501;49.926;8.404;2023-06-14T08:35:12;5.63;;;3.45;;
16766;SDS011;8501;49.926;8.404;2023-06-14T08:37:41;3.65;;;3.33;;
16766;SDS011;8501;49.926;8.404;2023-06-14T08:40:19;5.10;;;3.28;;
16766;SDS011;8501;49.926;8.404;2023-06-14T08:42:52;4.88;;;3.78;;
16766;SDS011;8501;49.926;8.404;2023-06-14T08:45:23;5.18;;;3.50;;
16766;SDS011;8501;49.926;8.404;2023-06-14T08:47:50;5.70;;;3.20;;
16766;SDS011;8501;49.926;8.404;2023-06-14T08:50:23;3.65;;;3.30;;
16766;SDS011;8501;49.926;8.404;2023-06-14T08:52:52;5.97;;;3.28;;
16766;SDS011;8501;49.926;8.404;2023-06-14T08:55:19;5.60;;;2.92;;
16766;SDS011;8501;49.926;8.404;2023-06-14T08:57:50;4.22;;;2.95;;
16766;SDS011;8501;49.926;8.404;2023-06-14T09:00:16;7.65;;;3.08;;
16766;SDS011;8501;49.926;8.404;2023-06-14T09:02:42;5.32;;;2.85;;
16766;SDS011;8501;49.926;8.404;2023-06-14T09:05:11;4.63;;;2.92;;
16766;SDS011;8501;49.926;8.404;2023-06-14T09:07:38;2.92;;;2.63;;
16766;SDS011;8501;49.926;8.404;2023-06-14T09:10:06;4.15;;;2.72;;
16766;SDS011;8501;49.926;8.404;2023-06-14T09:12:36;4.82;;;2.90;;
16766;SDS011;8501;49.926;8.404;2023-06-14T09:15:06;4.47;;;3.10;;
16766;SDS011;8501;49.926;8.404;2023-06-14T09:17:33;4.03;;;3.08;;
16766;SDS011;8501;49.926;8.404;2023-06-14T09:20:03;4.13;;;2.97;;
16766;SDS011;8501;49.926;8.404;2023-06-14T09:22:34;2.95;;;2.65;;
16766;SDS011;8501;49.926;8.404;2023-06-14T09:25:00;4.75;;;2.90;;
16766;SDS011;8501;49.926;8.404;2023-06-14T09:27:28;4.18;;;3.08;;
16766;SDS011;8501;49.926;8.404;2023-06-14T09:29:54;5.28;;;3.10;;
16766;SDS011;8501;49.926;8.404;2023-06-14T09:32:20;5.20;;;2.85;;
16766;SDS011;8501;49.926;8.404;2023-06-14T09:34:46;5.07;;;3.00;;
16766;SDS011;8501;49.926;8.404;2023-06-14T09:37:12;4.85;;;2.90;;
16766;SDS011;8501;49.926;8.404;2023-06-14T09:39:50;2.95;;;2.65;;
16766;SDS011;8501;49.926;8.404;2023-06-14T09:42:16;3.38;;;2.90;;
16766;SDS011;8501;49.926;8.404;2023-06-14T09:44:48;4.57;;;3.15;;
16766;SDS011;8501;49.926;8.404;2023-06-14T09:47:14;3.67;;;2.88;;
16766;SDS011;8501;49.926;8.404;2023-06-14T09:49:40;4.38;;;2.88;;
16766;SDS011;8501;49.926;8.404;2023-06-14T09:52:16;3.33;;;3.00;;
16766;SDS011;8501;49.926;8.404;2023-06-14T09:54:43;4.90;;;2.85;;
16766;SDS011;8501;49.926;8.404;2023-06-14T09:57:12;3.80;;;2.80;;
16766;SDS011;8501;49.926;8.404;2023-06-14T09:59:39;5.05;;;2.65;;
16766;SDS011;8501;49.926;8.404;2023-06-14T10:02:11;4.47;;;2.67;;
16766;SDS011;8501;49.926;8.404;2023-06-14T10:04:46;2.80;;;2.60;;
16766;SDS011;8501;49.926;8.404;2023-06-14T10:07:19;3.65;;;2.88;;
16766;SDS011;8501;49.926;8.404;2023-06-14T10:09:46;3.63;;;3.28;;
16766;SDS011;8501;49.926;8.404;2023-06-14T10:12:16;4.18;;;2.97;;
16766;SDS011;8501;49.926;8.404;2023-06-14T10:14:51;5.10;;;2.90;;
16766;SDS011;8501;49.926;8.404;2023-06-14T10:17:22;5.68;;;2.92;;
16766;SDS011;8501;49.926;8.404;2023-06-14T10:22:58;4.10;;;2.70;;
16766;SDS011;8501;49.926;8.404;2023-06-14T10:25:31;4.63;;;2.75;;
16766;SDS011;8501;49.926;8.404;2023-06-14T10:33:27;3.20;;;2.78;;
16766;SDS011;8501;49.926;8.404;2023-06-14T10:36:08;3.25;;;2.60;;
16766;SDS011;8501;49.926;8.404;2023-06-14T10:38:36;2.90;;;2.60;;
16766;SDS011;8501;49.926;8.404;2023-06-14T10:41:03;4.40;;;3.10;;
16766;SDS011;8501;49.926;8.404;2023-06-14T10:43:30;3.13;;;2.70;;
16766;SDS011;8501;49.926;8.404;2023-06-14T10:48:57;3.92;;;2.60;;
16766;SDS011;8501;49.926;8.404;2023-06-14T10:51:23;3.65;;;2.28;;
16766;SDS011;8501;49.926;8.404;2023-06-14T10:53:50;4.32;;;2.63;;
16766;SDS011;8501;49.926;8.404;2023-06-14T10:56:23;3.00;;;2.35;;
16766;SDS011;8501;49.926;8.404;2023-06-14T10:58:53;3.00;;;2.40;;
16766;SDS011;8501;49.926;8.404;2023-06-14T11:01:31;3.97;;;2.30;;
16766;SDS011;8501;49.926;8.404;2023-06-14T11:04:09;4.15;;;2.60;;
16766;SDS011;8501;49.926;8.404;2023-06-14T11:06:45;3.63;;;2.60;;
16766;SDS011;8501;49.926;8.404;2023-06-14T11:09:36;3.10;;;2.80;;
16766;SDS011;8501;49.926;8.404;2023-06-14T11:12:16;3.53;;;3.20;;
16766;SDS011;8501;49.926;8.404;2023-06-14T11:14:45;6.93;;;3.30;;
16766;SDS011;8501;49.926;8.404;2023-06-14T11:17:12;4.38;;;3.00;;
16766;SDS011;8501;49.926;8.404;2023-06-14T11:19:38;4.78;;;3.10;;
16766;SDS011;8501;49.926;8.404;2023-06-14T11:22:03;3.28;;;2.97;;
16766;SDS011;8501;49.926;8.404;2023-06-14T11:24:29;3.75;;;3.30;;
16766;SDS011;8501;49.926;8.404;2023-06-14T11:26:57;4.15;;;3.38;;
16766;SDS011;8501;49.926;8.404;2023-06-14T11:29:22;7.22;;;4.28;;
16766;SDS011;8501;49.926;8.404;2023-06-14T11:31:48;13.13;;;4.30;;
16766;SDS011;8501;49.926;8.404;2023-06-14T11:34:13;5.82;;;3.75;;
16766;SDS011;8501;49.926;8.404;2023-06-14T11:36:39;4.25;;;3.85;;
16766;SDS011;8501;49.926;8.404;2023-06-14T11:39:06;6.60;;;3.20;;
16766;SDS011;8501;49.926;8.404;2023-06-14T11:41:37;5.60;;;3.40;;
16766;SDS011;8501;49.926;8.404;2023-06-14T11:44:07;6.18;;;3.42;;
16766;SDS011;8501;49.926;8.404;2023-06-14T11:46:33;5.63;;;3.60;;
16766;SDS011;8501;49.926;8.404;2023-06-14T11:49:00;8.15;;;3.58;;
16766;SDS011;8501;49.926;8.404;2023-06-14T11:51:28;4.75;;;3.50;;
16766;SDS011;8501;49.926;8.404;2023-06-14T11:53:55;5.25;;;3.33;;
16766;SDS011;8501;49.926;8.404;2023-06-14T11:56:20;6.40;;;3.50;;
16766;SDS011;8501;49.926;8.404;2023-06-14T11:58:46;4.05;;;3.30;;
16766;SDS011;8501;49.926;8.404;2023-06-14T12:01:18;6.25;;;3.92;;
16766;SDS011;8501;49.926;8.404;2023-06-14T12:03:47;5.95;;;4.35;;
16766;SDS011;8501;49.926;8.404;2023-06-14T12:06:25;4.05;;;3.45;;
16766;SDS011;8501;49.926;8.404;2023-06-14T12:08:57;4.72;;;3.50;;
16766;SDS011;8501;49.926;8.404;2023-06-14T12:11:23;5.70;;;3.67;;
16766;SDS011;8501;49.926;8.404;2023-06-14T12:13:53;6.93;;;3.58;;
16766;SDS011;8501;49.926;8.404;2023-06-14T12:16:18;6.15;;;3.30;;
16766;SDS011;8501;49.926;8.404;2023-06-14T12:18:44;4.50;;;3.35;;
16766;SDS011;8501;49.926;8.404;2023-06-14T12:21:10;5.90;;;3.35;;
16766;SDS011;8501;49.926;8.404;2023-06-14T12:23:45;4.93;;;2.97;;
16766;SDS011;8501;49.926;8.404;2023-06-14T12:26:13;3.70;;;3.17;;
16766;SDS011;8501;49.926;8.404;2023-06-14T12:28:44;3.13;;;2.83;;
16766;SDS011;8501;49.926;8.404;2023-06-14T12:31:10;3.75;;;3.25;;
16766;SDS011;8501;49.926;8.404;2023-06-14T12:33:38;5.68;;;3.38;;
16766;SDS011;8501;49.926;8.404;2023-06-14T12:36:04;3.42;;;2.90;;
16766;SDS011;8501;49.926;8.404;2023-06-14T12:38:32;3.78;;;3.08;;
16766;SDS011;8501;49.926;8.404;2023-06-14T12:40:58;4.47;;;3.10;;
16766;SDS011;8501;49.926;8.404;2023-06-14T12:43:24;5.43;;;3.22;;
16766;SDS011;8501;49.926;8.404;2023-06-14T12:45:49;3.90;;;3.08;;
16766;SDS011;8501;49.926;8.404;2023-06-14T12:48:15;5.03;;;3.22;;
16766;SDS011;8501;49.926;8.404;2023-06-14T12:50:41;10.45;;;3.50;;
16766;SDS011;8501;49.926;8.404;2023-06-14T12:53:07;6.72;;;3.65;;
16766;SDS011;8501;49.926;8.404;2023-06-14T12:55:33;5.70;;;3.22;;
16766;SDS011;8501;49.926;8.404;2023-06-14T12:57:58;5.63;;;3.10;;
16766;SDS011;8501;49.926;8.404;2023-06-14T13:00:24;4.45;;;3.40;;
16766;SDS011;8501;49.926;8.404;2023-06-14T13:02:54;4.97;;;3.33;;
16766;SDS011;8501;49.926;8.404;2023-06-14T13:05:20;5.82;;;3.63;;
16766;SDS011;8501;49.926;8.404;2023-06-14T13:07:46;5.00;;;3.55;;
16766;SDS011;8501;49.926;8.404;2023-06-14T13:10:11;3.40;;;3.10;;
16766;SDS011;8501;49.926;8.404;2023-06-14T13:12:37;4.40;;;3.55;;
16766;SDS011;8501;49.926;8.404;2023-06-14T13:15:03;4.82;;;3.50;;
16766;SDS011;8501;49.926;8.404;2023-06-14T13:17:29;5.13;;;3.47;;
16766;SDS011;8501;49.926;8.404;2023-06-14T13:19:54;5.13;;;3.58;;
16766;SDS011;8501;49.926;8.404;2023-06-14T13:22:20;5.05;;;3.42;;
16766;SDS011;8501;49.926;8.404;2023-06-14T13:24:45;3.95;;;3.50;;
16766;SDS011;8501;49.926;8.404;2023-06-14T13:27:11;4.30;;;3.70;;
16766;SDS011;8501;49.926;8.404;2023-06-14T13:29:39;6.10;;;3.70;;
16766;SDS011;8501;49.926;8.404;2023-06-14T13:32:05;5.35;;;4.20;;
16766;SDS011;8501;49.926;8.404;2023-06-14T13:34:31;5.70;;;3.83;;
16766;SDS011;8501;49.926;8.404;2023-06-14T13:36:56;4.43;;;3.70;;
16766;SDS011;8501;49.926;8.404;2023-06-14T13:39:23;5.45;;;3.88;;
16766;SDS011;8501;49.926;8.404;2023-06-14T13:41:50;5.18;;;4.50;;
16766;SDS011;8501;49.926;8.404;2023-06-14T13:44:15;5.18;;;4.00;;
16766;SDS011;8501;49.926;8.404;2023-06-14T13:46:43;4.43;;;4.03;;
16766;SDS011;8501;49.926;8.404;2023-06-14T13:49:09;4.57;;;3.88;;
16766;SDS011;8501;49.926;8.404;2023-06-14T13:51:35;5.70;;;4.15;;
16766;SDS011;8501;49.926;8.404;2023-06-14T13:54:01;4.43;;;4.03;;
16766;SDS011;8501;49.926;8.404;2023-06-14T13:56:27;5.35;;;4.22;;
16766;SDS011;8501;49.926;8.404;2023-06-14T13:58:52;6.25;;;4.50;;
16766;SDS011;8501;49.926;8.404;2023-06-14T14:01:18;4.60;;;4.20;;
16766;SDS011;8501;49.926;8.404;2023-06-14T14:03:47;6.50;;;4.10;;
16766;SDS011;8501;49.926;8.404;2023-06-14T14:06:14;5.97;;;4.20;;
16766;SDS011;8501;49.926;8.404;2023-06-14T14:08:40;6.80;;;4.05;;
16766;SDS011;8501;49.926;8.404;2023-06-14T14:11:06;6.25;;;4.10;;
16766;SDS011;8501;49.926;8.404;2023-06-14T14:13:33;6.47;;;4.10;;
16766;SDS011;8501;49.926;8.404;2023-06-14T14:16:01;5.53;;;3.97;;
16766;SDS011;8501;49.926;8.404;2023-06-14T14:18:28;6.25;;;4.00;;
16766;SDS011;8501;49.926;8.404;2023-06-14T14:20:54;5.43;;;4.18;;
16766;SDS011;8501;49.926;8.404;2023-06-14T14:23:20;6.10;;;3.90;;
16766;SDS011;8501;49.926;8.404;2023-06-14T14:25:46;5.10;;;4.43;;
16766;SDS011;8501;49.926;8.404;2023-06-14T14:28:12;4.72;;;4.05;;
16766;SDS011;8501;49.926;8.404;2023-06-14T14:30:40;4.28;;;3.80;;
16766;SDS011;8501;49.926;8.404;2023-06-14T14:33:06;4.30;;;3.85;;
16766;SDS011;8501;49.926;8.404;2023-06-14T14:35:32;4.78;;;3.80;;
16766;SDS011;8501;49.926;8.404;2023-06-14T14:37:58;6.43;;;4.03;;
16766;SDS011;8501;49.926;8.404;2023-06-14T14:40:24;5.85;;;4.00;;
16766;SDS011;8501;49.926;8.404;2023-06-14T14:42:49;6.63;;;3.90;;
16766;SDS011;8501;49.926;8.404;2023-06-14T14:45:15;5.50;;;3.85;;
16766;SDS011;8501;49.926;8.404;2023-06-14T14:47:41;5.57;;;3.83;;
16766;SDS011;8501;49.926;8.404;2023-06-14T14:50:06;3.60;;;3.30;;
16766;SDS011;8501;49.926;8.404;2023-06-14T14:52:35;5.50;;;3.80;;
16766;SDS011;8501;49.926;8.404;2023-06-14T14:55:01;4.07;;;3.42;;
16766;SDS011;8501;49.926;8.404;2023-06-14T14:57:27;4.22;;;3.70;;
16766;SDS011;8501;49.926;8.404;2023-06-14T14:59:53;4.68;;;3.45;;
16766;SDS011;8501;49.926;8.404;2023-06-14T15:02:18;5.68;;;3.70;;
16766;SDS011;8501;49.926;8.404;2023-06-14T15:04:44;4.07;;;3.63;;
16766;SDS011;8501;49.926;8.404;2023-06-14T15:07:10;6.28;;;3.72;;
16766;SDS011;8501;49.926;8.404;2023-06-14T15:09:36;4.28;;;3.70;;
16766;SDS011;8501;49.926;8.404;2023-06-14T15:12:02;5.07;;;3.50;;
16766;SDS011;8501;49.926;8.404;2023-06-14T15:14:28;4.47;;;3.70;;